Time;durP1;ratioP1;P1;durP2;ratioP2;P2;SDS_P1;SDS_P2;PMS_P1;PMS_P2;Temp;Humidity;BMP_temperature;BMP_pressure;BME280_temperature;BME280_humidity;BME280_pressure;Samples;Min_cycle;Max_cycle;Signal;HPM_P1;HPM_P2
2021/03/07 00:00:11;;;;;;;16.07;11.17;;;-1.70;99.90;;;;;;5107375;27;21020;-71
2021/03/07 00:02:39;;;;;;;14.33;11.33;;;-1.80;99.90;;;;;;5133973;27;20516;-71
2021/03/07 00:05:07;;;;;;;13.10;11.63;;;-1.70;99.90;;;;;;5126087;27;20995;-71
2021/03/07 00:07:33;;;;;;;13.73;11.33;;;-1.70;99.90;;;;;;5129026;27;20879;-71
2021/03/07 00:10:00;;;;;;;15.57;11.03;;;-1.90;99.90;;;;;;5134379;27;20954;-70
2021/03/07 00:12:26;;;;;;;13.60;9.87;;;-1.90;99.90;;;;;;5124844;27;20441;-70
2021/03/07 00:14:53;;;;;;;14.10;11.20;;;-1.90;99.90;;;;;;5108786;27;20473;-72
2021/03/07 00:17:19;;;;;;;12.40;9.30;;;-1.90;99.90;;;;;;5130306;27;20815;-71
2021/03/07 00:19:47;;;;;;;16.57;11.00;;;-1.90;99.90;;;;;;5124521;27;20475;-71
2021/03/07 00:22:13;;;;;;;15.73;11.17;;;-1.90;99.90;;;;;;5133214;27;20476;-71
2021/03/07 00:24:40;;;;;;;13.30;10.27;;;-2.00;99.90;;;;;;5134214;27;20528;-71
2021/03/07 00:27:06;;;;;;;14.43;10.63;;;-1.90;99.90;;;;;;5134544;27;21075;-71
2021/03/07 00:29:32;;;;;;;13.80;10.07;;;-2.00;99.90;;;;;;5133848;27;20445;-71
2021/03/07 00:31:59;;;;;;;13.03;9.90;;;-2.00;99.90;;;;;;5121318;27;20456;-71
2021/03/07 00:34:25;;;;;;;12.63;9.50;;;-1.90;99.90;;;;;;5132397;27;20503;-71
2021/03/07 00:36:53;;;;;;;15.57;10.83;;;-1.90;99.90;;;;;;5133100;27;20473;-70
2021/03/07 00:39:19;;;;;;;14.13;10.43;;;-2.00;99.90;;;;;;5132901;27;20524;-71
2021/03/07 00:41:46;;;;;;;14.77;11.30;;;-2.10;99.90;;;;;;5120303;27;20563;-71
2021/03/07 00:44:13;;;;;;;12.23;10.93;;;-2.10;99.90;;;;;;5124385;27;20485;-70
2021/03/07 00:46:43;;;;;;;13.90;10.83;;;-2.10;99.90;;;;;;5132157;27;20274;-72
2021/03/07 00:49:10;;;;;;;12.73;9.77;;;-2.10;99.90;;;;;;5132539;27;20514;-71
2021/03/07 00:51:38;;;;;;;12.50;9.83;;;-2.10;99.90;;;;;;5132777;27;20973;-71
2021/03/07 00:54:05;;;;;;;12.40;10.10;;;-2.10;99.90;;;;;;5130495;27;20490;-71
2021/03/07 00:56:32;;;;;;;14.27;9.67;;;-2.20;99.90;;;;;;5132934;27;20456;-71
2021/03/07 00:58:58;;;;;;;12.50;9.53;;;-2.20;99.90;;;;;;5132507;27;20471;-71
2021/03/07 01:01:25;;;;;;;15.03;10.17;;;-2.30;99.90;;;;;;5123870;27;20512;-71
2021/03/07 01:03:51;;;;;;;11.83;8.93;;;-2.30;99.90;;;;;;5128647;27;20507;-72
2021/03/07 01:06:19;;;;;;;16.10;9.83;;;-2.30;99.90;;;;;;5127205;27;20855;-71
2021/03/07 01:08:46;;;;;;;10.27;9.07;;;-2.40;99.90;;;;;;5129323;27;20523;-71
2021/03/07 01:11:13;;;;;;;13.83;9.87;;;-2.40;99.90;;;;;;5131093;27;20535;-71
2021/03/07 01:13:40;;;;;;;11.17;9.80;;;-2.30;99.90;;;;;;5130971;27;20555;-72
2021/03/07 01:16:06;;;;;;;14.03;10.00;;;-2.40;99.90;;;;;;5130061;27;20444;-73
2021/03/07 01:18:33;;;;;;;14.80;10.83;;;-2.40;99.90;;;;;;5129482;27;20846;-72
2021/03/07 01:20:59;;;;;;;13.37;10.13;;;-2.40;99.90;;;;;;5121981;27;20476;-71
2021/03/07 01:23:27;;;;;;;13.53;9.07;;;-2.40;99.90;;;;;;5129590;27;20501;-71
2021/03/07 01:25:54;;;;;;;14.33;9.80;;;-2.40;99.90;;;;;;5125263;27;20547;-72
2021/03/07 01:28:21;;;;;;;12.70;9.70;;;-2.40;99.90;;;;;;5109399;27;20446;-72
2021/03/07 01:30:48;;;;;;;14.90;11.30;;;-2.30;99.90;;;;;;5092148;28;20549;-72
2021/03/07 01:33:14;;;;;;;13.73;8.60;;;-2.40;99.90;;;;;;5092458;28;20851;-72
2021/03/07 01:35:41;;;;;;;12.13;8.80;;;-2.40;99.90;;;;;;5091946;28;20576;-72
2021/03/07 01:38:08;;;;;;;16.40;10.10;;;-2.50;99.90;;;;;;5092588;28;20994;-71
2021/03/07 01:40:38;;;;;;;12.30;9.93;;;-2.50;99.90;;;;;;5092610;28;20870;-71
2021/03/07 01:43:05;;;;;;;14.00;9.93;;;-2.60;99.90;;;;;;5092248;28;20482;-71
2021/03/07 01:45:34;;;;;;;13.67;9.60;;;-2.60;99.90;;;;;;5091270;28;20541;-71
2021/03/07 01:48:03;;;;;;;16.50;9.57;;;-2.80;99.90;;;;;;5092537;28;20533;-71
2021/03/07 01:50:32;;;;;;;14.90;9.67;;;-2.70;99.90;;;;;;5092586;28;20516;-71
2021/03/07 01:52:59;;;;;;;14.60;9.73;;;-2.70;99.90;;;;;;5092376;28;20529;-71
2021/03/07 01:55:27;;;;;;;15.60;9.80;;;-2.70;99.90;;;;;;5091625;28;20505;-71
2021/03/07 01:57:58;;;;;;;12.87;10.60;;;-2.70;99.90;;;;;;5092646;28;20542;-71
2021/03/07 02:00:25;;;;;;;17.50;10.47;;;-2.60;99.90;;;;;;5094082;28;20875;-71
2021/03/07 02:02:53;;;;;;;9.27;7.47;;;-2.70;99.90;;;;;;5112154;28;20473;-71
2021/03/07 02:05:20;;;;;;;11.90;9.07;;;-2.60;99.90;;;;;;5114394;28;20504;-71
2021/03/07 02:07:47;;;;;;;11.03;7.87;;;-2.60;99.90;;;;;;5117009;28;20433;-71
2021/03/07 02:10:19;;;;;;;14.93;10.27;;;-2.50;99.90;;;;;;5116701;28;20523;-72
2021/03/07 02:12:47;;;;;;;13.03;9.87;;;-2.50;99.90;;;;;;5117028;28;20441;-72
2021/03/07 02:15:14;;;;;;;19.83;9.00;;;-2.50;99.90;;;;;;5116514;28;20549;-71
2021/03/07 02:17:42;;;;;;;12.13;10.07;;;-2.40;99.90;;;;;;5117021;28;20520;-72
2021/03/07 02:20:13;;;;;;;12.23;9.93;;;-2.50;99.90;;;;;;5116850;28;20484;-72
2021/03/07 02:22:45;;;;;;;14.77;9.47;;;-2.50;99.90;;;;;;5116236;28;20512;-72
2021/03/07 02:25:14;;;;;;;12.70;9.73;;;-2.70;99.90;;;;;;5115081;28;20473;-70
2021/03/07 02:27:41;;;;;;;12.33;9.90;;;-2.70;99.90;;;;;;5116101;27;20940;-72
2021/03/07 02:30:10;;;;;;;15.83;10.03;;;-2.60;99.90;;;;;;5116129;28;20935;-72
2021/03/07 02:32:41;;;;;;;18.43;9.30;;;-2.80;99.90;;;;;;5116046;28;20480;-72
2021/03/07 02:35:14;;;;;;;13.00;9.30;;;-2.80;99.90;;;;;;5115279;28;20461;-72
2021/03/07 02:37:45;;;;;;;15.30;10.73;;;-2.80;99.90;;;;;;5106246;27;20453;-72
2021/03/07 02:40:14;;;;;;;13.73;10.03;;;-2.80;99.90;;;;;;5115983;28;20524;-72
2021/03/07 02:42:43;;;;;;;14.63;9.00;;;-2.90;99.90;;;;;;5095611;28;20560;-72
2021/03/07 02:45:13;;;;;;;16.47;10.80;;;-3.00;99.90;;;;;;5094736;28;20508;-72
2021/03/07 02:47:44;;;;;;;12.67;9.70;;;-3.00;99.90;;;;;;5095664;28;20482;-72
2021/03/07 02:50:15;;;;;;;12.20;10.27;;;-3.00;99.90;;;;;;5095535;28;21043;-72
2021/03/07 02:52:47;;;;;;;18.13;9.43;;;-3.10;99.90;;;;;;5095455;28;20551;-72
2021/03/07 02:55:15;;;;;;;16.60;11.47;;;-3.10;99.90;;;;;;5095091;28;20561;-72
2021/03/07 02:57:43;;;;;;;13.30;10.07;;;-3.20;99.90;;;;;;5095641;28;20488;-72
2021/03/07 03:00:11;;;;;;;11.77;9.70;;;-3.20;99.90;;;;;;5095254;28;20870;-72
2021/03/07 03:02:39;;;;;;;12.90;9.93;;;-3.20;99.90;;;;;;5095268;28;20579;-73
2021/03/07 03:05:08;;;;;;;15.23;10.13;;;-3.20;99.90;;;;;;5094538;28;20469;-71
2021/03/07 03:07:35;;;;;;;12.43;9.90;;;-3.20;99.90;;;;;;5115470;28;20525;-72
2021/03/07 03:10:04;;;;;;;15.77;10.27;;;-3.20;99.90;;;;;;5115713;28;20528;-71
2021/03/07 03:12:35;;;;;;;15.00;10.47;;;-3.20;99.90;;;;;;5115913;28;20477;-71
2021/03/07 03:15:03;;;;;;;12.60;10.50;;;-3.30;99.90;;;;;;5115040;28;20465;-70
2021/03/07 03:17:30;;;;;;;14.40;10.07;;;-3.40;99.90;;;;;;5115186;28;20449;-71
2021/03/07 03:19:57;;;;;;;14.50;10.97;;;-3.40;99.90;;;;;;5115608;27;20524;-71
2021/03/07 03:22:24;;;;;;;13.60;10.13;;;-3.40;99.90;;;;;;5115500;28;20626;-70
2021/03/07 03:24:51;;;;;;;13.43;9.13;;;-3.40;99.90;;;;;;5114450;28;20501;-70
2021/03/07 03:27:17;;;;;;;15.33;9.97;;;-3.40;99.90;;;;;;5113575;28;20521;-70
2021/03/07 03:29:45;;;;;;;15.30;10.30;;;-3.50;99.90;;;;;;5113802;28;20537;-70
2021/03/07 03:32:11;;;;;;;12.93;10.40;;;-3.40;99.90;;;;;;5114365;28;20521;-70
2021/03/07 03:34:38;;;;;;;14.75;10.70;;;-3.50;99.90;;;;;;5113767;28;20435;-70
2021/03/07 03:37:04;;;;;;;11.90;10.07;;;-3.60;99.90;;;;;;5114310;28;20283;-70
2021/03/07 03:39:31;;;;;;;13.77;11.40;;;-3.60;99.90;;;;;;5114554;28;20511;-71
2021/03/07 03:42:00;;;;;;;10.43;9.07;;;-3.60;99.90;;;;;;5114469;28;20605;-71
2021/03/07 03:44:32;;;;;;;14.50;10.43;;;-3.50;99.90;;;;;;5113881;28;20497;-71
2021/03/07 03:47:00;;;;;;;17.83;11.70;;;-3.40;99.90;;;;;;5114556;28;20522;-70
2021/03/07 03:49:31;;;;;;;11.93;9.33;;;-3.40;99.90;;;;;;5114776;28;20448;-71
2021/03/07 03:52:01;;;;;;;13.67;9.97;;;-3.40;99.90;;;;;;5115301;28;20442;-71
2021/03/07 03:54:29;;;;;;;14.83;11.03;;;-3.50;99.90;;;;;;5114241;28;20466;-71
2021/03/07 03:56:58;;;;;;;13.50;9.63;;;-3.50;99.90;;;;;;5115043;28;21027;-71
2021/03/07 03:59:28;;;;;;;11.30;9.33;;;-3.50;99.90;;;;;;5114695;28;20528;-71
2021/03/07 04:01:57;;;;;;;15.27;10.50;;;-3.50;99.90;;;;;;5114543;28;20568;-71
2021/03/07 04:04:26;;;;;;;15.03;9.37;;;-3.70;99.90;;;;;;5113882;28;20552;-73
2021/03/07 04:06:53;;;;;;;13.17;10.37;;;-3.70;99.90;;;;;;5114572;28;20484;-71
2021/03/07 04:09:20;;;;;;;15.10;10.10;;;-3.70;99.90;;;;;;5114659;28;20476;-71
2021/03/07 04:11:47;;;;;;;11.77;10.00;;;-3.70;99.90;;;;;;5114264;28;21110;-71
2021/03/07 04:14:14;;;;;;;16.07;11.80;;;-3.80;99.90;;;;;;5113575;28;20461;-71
2021/03/07 04:16:41;;;;;;;15.27;11.40;;;-3.80;99.90;;;;;;5114393;28;20470;-71
2021/03/07 04:19:08;;;;;;;18.73;13.80;;;-3.90;99.90;;;;;;5114385;28;20473;-71
2021/03/07 04:21:38;;;;;;;19.10;14.20;;;-3.90;99.90;;;;;;5114724;28;20445;-71
2021/03/07 04:24:06;;;;;;;14.07;11.23;;;-3.90;99.90;;;;;;5112796;27;21200;-71
2021/03/07 04:26:32;;;;;;;11.93;10.53;;;-3.80;99.90;;;;;;5113784;28;20472;-71
2021/03/07 04:28:59;;;;;;;15.33;10.60;;;-3.70;99.90;;;;;;5113440;28;20485;-71
2021/03/07 04:31:27;;;;;;;13.10;9.43;;;-3.70;99.90;;;;;;5114100;28;20446;-71
2021/03/07 04:33:53;;;;;;;14.37;9.17;;;-3.70;99.90;;;;;;5112917;28;20449;-71
2021/03/07 04:36:20;;;;;;;15.17;11.03;;;-3.70;99.90;;;;;;5113672;28;21013;-71
2021/03/07 04:38:47;;;;;;;14.00;11.40;;;-3.70;99.90;;;;;;5114115;28;20481;-71
2021/03/07 04:41:14;;;;;;;16.30;10.00;;;-3.70;99.90;;;;;;5113665;27;20924;-71
2021/03/07 04:43:47;;;;;;;14.37;10.87;;;-3.70;99.90;;;;;;5112765;28;20572;-71
2021/03/07 04:46:14;;;;;;;18.20;12.87;;;-3.80;99.90;;;;;;5113480;28;20432;-71
2021/03/07 04:48:40;;;;;;;13.10;10.30;;;-3.80;99.90;;;;;;5113189;28;20485;-71
2021/03/07 04:51:07;;;;;;;14.97;11.43;;;-3.80;99.90;;;;;;5113535;28;20477;-73
2021/03/07 04:53:33;;;;;;;15.43;11.00;;;-3.90;99.90;;;;;;5112754;28;20438;-72
2021/03/07 04:56:00;;;;;;;15.77;10.40;;;-3.90;99.90;;;;;;5113018;28;20606;-72
2021/03/07 04:58:27;;;;;;;13.53;11.43;;;-3.90;99.90;;;;;;5113302;28;20481;-71
2021/03/07 05:00:54;;;;;;;15.67;11.33;;;-3.70;99.90;;;;;;5113144;28;20465;-72
2021/03/07 05:03:20;;;;;;;14.60;10.87;;;-3.70;99.90;;;;;;5112513;28;21077;-71
2021/03/07 05:05:48;;;;;;;15.50;10.93;;;-3.80;99.90;;;;;;5112323;28;20555;-72
2021/03/07 05:08:15;;;;;;;14.63;10.50;;;-3.80;99.90;;;;;;5112433;28;20498;-72
2021/03/07 05:10:41;;;;;;;13.13;10.50;;;-3.80;99.90;;;;;;5113053;28;20569;-71
2021/03/07 05:13:08;;;;;;;12.90;10.97;;;-3.90;99.90;;;;;;5112707;28;20461;-72
2021/03/07 05:15:35;;;;;;;13.47;11.40;;;-3.90;99.90;;;;;;5112105;28;20465;-71
2021/03/07 05:18:01;;;;;;;13.30;9.60;;;-3.80;99.90;;;;;;5112325;28;20803;-71
2021/03/07 05:20:28;;;;;;;17.10;11.90;;;-3.90;99.90;;;;;;5112916;28;20562;-71
2021/03/07 05:22:54;;;;;;;13.30;10.83;;;-3.80;99.90;;;;;;5112536;28;20512;-71
2021/03/07 05:25:21;;;;;;;15.40;10.80;;;-3.90;99.90;;;;;;5111866;27;20568;-71
2021/03/07 05:27:47;;;;;;;15.90;11.00;;;-3.90;99.90;;;;;;5112470;28;20533;-71
2021/03/07 05:30:15;;;;;;;14.60;10.50;;;-4.00;99.90;;;;;;5112422;28;20484;-71
2021/03/07 05:32:42;;;;;;;16.47;10.97;;;-4.00;99.90;;;;;;5112120;28;20528;-71
2021/03/07 05:35:10;;;;;;;12.60;9.57;;;-3.80;99.90;;;;;;5111202;28;20971;-71
2021/03/07 05:37:36;;;;;;;13.13;9.90;;;-3.70;99.90;;;;;;5112412;28;20445;-71
2021/03/07 05:40:04;;;;;;;12.37;9.47;;;-3.70;99.90;;;;;;5111476;28;20449;-71
2021/03/07 05:42:30;;;;;;;12.97;9.77;;;-3.60;99.90;;;;;;5112263;28;20574;-71
2021/03/07 05:44:57;;;;;;;15.13;9.90;;;-3.70;99.90;;;;;;5111542;28;20507;-71
2021/03/07 05:47:24;;;;;;;15.57;10.93;;;-3.80;99.90;;;;;;5112243;28;20485;-72
2021/03/07 05:49:50;;;;;;;14.53;11.90;;;-3.90;99.90;;;;;;5112446;28;20529;-71
2021/03/07 05:52:21;;;;;;;15.40;11.17;;;-4.00;99.90;;;;;;5112432;28;20448;-71
2021/03/07 05:54:47;;;;;;;17.23;11.57;;;-3.90;99.90;;;;;;5111375;28;20536;-71
2021/03/07 05:57:16;;;;;;;15.57;10.10;;;-3.90;99.90;;;;;;5112295;28;20533;-71
2021/03/07 05:59:43;;;;;;;14.93;10.97;;;-3.80;99.90;;;;;;5111850;28;20484;-71
2021/03/07 06:02:14;;;;;;;16.53;10.83;;;-3.90;99.90;;;;;;5111791;28;21012;-71
2021/03/07 06:04:41;;;;;;;19.53;12.97;;;-3.80;99.90;;;;;;5111404;28;21137;-71
2021/03/07 06:07:08;;;;;;;17.63;12.87;;;-3.70;99.90;;;;;;5112255;28;20528;-70
2021/03/07 06:09:34;;;;;;;14.43;10.57;;;-3.70;99.90;;;;;;5112064;28;20509;-71
2021/03/07 06:12:02;;;;;;;14.80;10.33;;;-3.80;99.90;;;;;;5112970;28;20525;-71
2021/03/07 06:14:30;;;;;;;20.97;13.60;;;-3.60;99.90;;;;;;5113204;28;20461;-70
2021/03/07 06:17:04;;;;;;;13.40;10.90;;;-3.50;99.90;;;;;;5114005;28;20574;-71
2021/03/07 06:19:52;;;;;;;14.83;12.07;;;-3.40;99.90;;;;;;5113524;28;20483;-71
2021/03/07 06:22:19;;;;;;;12.57;9.43;;;-3.40;99.90;;;;;;5112937;28;20480;-71
2021/03/07 06:24:45;;;;;;;13.13;9.93;;;-3.40;99.90;;;;;;5112393;28;21030;-71
2021/03/07 06:27:13;;;;;;;15.40;11.00;;;-3.40;99.90;;;;;;5109396;28;20528;-71
2021/03/07 06:29:57;;;;;;;15.70;11.30;;;-3.30;99.90;;;;;;5103344;28;20578;-73
2021/03/07 06:32:24;;;;;;;13.47;9.47;;;-3.20;99.90;;;;;;5111792;28;20516;-71
2021/03/07 06:34:51;;;;;;;12.97;10.07;;;-3.10;99.90;;;;;;5110871;28;20489;-71
2021/03/07 06:37:19;;;;;;;13.40;10.00;;;-3.10;99.90;;;;;;5111376;28;20448;-72
2021/03/07 06:39:45;;;;;;;14.60;11.00;;;-3.00;99.90;;;;;;5111548;28;21201;-73
2021/03/07 06:42:13;;;;;;;14.77;10.50;;;-2.90;99.90;;;;;;5111675;28;20889;-72
2021/03/07 06:44:53;;;;;;;17.87;11.53;;;-2.80;99.90;;;;;;5110736;28;20584;-72
2021/03/07 06:47:19;;;;;;;14.80;9.57;;;-2.70;99.90;;;;;;5110571;28;20533;-72
2021/03/07 06:49:45;;;;;;;13.50;9.83;;;-2.70;99.90;;;;;;5110624;28;21002;-72
2021/03/07 06:52:17;;;;;;;10.70;9.00;;;-2.70;99.90;;;;;;5114462;28;20528;-71
2021/03/07 06:55:01;;;;;;;10.90;8.83;;;-2.60;99.90;;;;;;5113622;28;20552;-72
2021/03/07 06:57:29;;;;;;;13.27;9.77;;;-2.50;99.90;;;;;;5114459;28;20855;-72
2021/03/07 06:59:55;;;;;;;14.33;10.23;;;-2.30;99.90;;;;;;5114135;28;20536;-69
2021/03/07 07:02:22;;;;;;;13.03;9.83;;;-2.30;99.90;;;;;;5113783;28;20488;-70
2021/03/07 07:04:48;;;;;;;14.47;9.60;;;-2.20;99.90;;;;;;5113192;28;20552;-70
2021/03/07 07:07:17;;;;;;;11.27;8.73;;;-2.00;99.90;;;;;;5113759;28;20473;-70
2021/03/07 07:09:45;;;;;;;12.53;9.60;;;-1.90;99.90;;;;;;5113499;28;20445;-70
2021/03/07 07:12:20;;;;;;;13.40;9.00;;;-1.80;99.90;;;;;;5113930;28;20440;-70
2021/03/07 07:14:46;;;;;;;13.73;9.23;;;-1.60;99.90;;;;;;5112885;28;21062;-70
2021/03/07 07:17:15;;;;;;;13.90;11.03;;;-1.50;99.90;;;;;;5113925;28;20481;-70
2021/03/07 07:19:42;;;;;;;13.20;10.17;;;-1.30;99.90;;;;;;5113880;28;20528;-70
2021/03/07 07:22:12;;;;;;;12.30;9.23;;;-1.20;99.90;;;;;;5113527;28;20477;-70
2021/03/07 07:24:38;;;;;;;12.03;10.23;;;-1.10;99.90;;;;;;5112905;28;20468;-70
2021/03/07 07:27:06;;;;;;;12.70;10.73;;;-1.00;99.90;;;;;;5113432;28;20491;-70
2021/03/07 07:29:34;;;;;;;10.67;8.40;;;-0.90;99.90;;;;;;5113675;28;20488;-70
2021/03/07 07:32:04;;;;;;;10.80;9.13;;;-0.70;99.90;;;;;;5113838;28;20441;-70
2021/03/07 07:34:33;;;;;;;13.30;8.87;;;-0.50;99.90;;;;;;5113084;28;20540;-70
2021/03/07 07:37:05;;;;;;;12.43;9.10;;;-0.30;99.90;;;;;;5113362;28;20524;-71
2021/03/07 07:39:34;;;;;;;10.17;7.80;;;-0.10;99.90;;;;;;5113505;28;20437;-70
2021/03/07 07:42:20;;;;;;;9.50;7.33;;;0.00;99.90;;;;;;5113421;28;20484;-70
2021/03/07 07:44:47;;;;;;;12.63;7.73;;;0.10;99.90;;;;;;5112768;28;20881;-70
2021/03/07 07:47:14;;;;;;;11.03;8.13;;;0.20;99.90;;;;;;5113198;28;20473;-70
2021/03/07 07:49:48;;;;;;;12.37;8.20;;;0.30;99.90;;;;;;5113282;28;20481;-70
2021/03/07 07:52:37;;;;;;;9.77;8.70;;;0.30;99.90;;;;;;5112994;28;20440;-70
2021/03/07 07:55:11;;;;;;;8.20;7.33;;;0.40;99.90;;;;;;5112445;28;20469;-70
2021/03/07 07:57:50;;;;;;;11.50;8.63;;;0.50;99.90;;;;;;5113069;28;20498;-70
2021/03/07 08:00:23;;;;;;;8.90;7.93;;;0.60;99.90;;;;;;5113063;28;20445;-70
2021/03/07 08:02:52;;;;;;;10.80;8.10;;;0.80;99.90;;;;;;5112457;28;20568;-70
2021/03/07 08:05:41;;;;;;;11.90;8.63;;;0.90;99.90;;;;;;5112620;28;20461;-71
2021/03/07 08:08:08;;;;;;;9.73;8.37;;;1.10;99.90;;;;;;5113197;28;20456;-71
2021/03/07 08:10:53;;;;;;;10.07;8.30;;;1.20;99.90;;;;;;5113163;28;20535;-70
2021/03/07 08:13:43;;;;;;;11.33;10.10;;;1.40;99.90;;;;;;5112858;27;20448;-70
2021/03/07 08:16:10;;;;;;;12.87;8.20;;;1.50;99.90;;;;;;5113094;28;20512;-70
2021/03/07 08:18:47;;;;;;;8.57;6.67;;;1.60;99.90;;;;;;5113585;28;20465;-70
2021/03/07 08:21:14;;;;;;;10.33;7.60;;;1.60;99.90;;;;;;5114470;28;21006;-70
2021/03/07 08:24:02;;;;;;;11.40;7.73;;;1.70;99.90;;;;;;5113485;28;20530;-70
2021/03/07 08:26:51;;;;;;;11.90;7.77;;;2.00;99.90;;;;;;5111744;28;20440;-70
2021/03/07 08:29:47;;;;;;;9.90;7.80;;;2.20;99.90;;;;;;5112705;28;20489;-70
2021/03/07 08:32:28;;;;;;;10.50;8.13;;;2.40;99.90;;;;;;5113231;27;20437;-69
2021/03/07 08:34:56;;;;;;;9.60;7.67;;;2.70;99.90;;;;;;5112156;28;20465;-69
2021/03/07 08:37:22;;;;;;;9.13;7.17;;;2.90;99.90;;;;;;5112567;28;20540;-69
2021/03/07 08:40:31;;;;;;;10.47;7.53;;;3.00;99.90;;;;;;5112660;28;20894;-70
2021/03/07 08:43:19;;;;;;;8.63;6.90;;;3.20;99.90;;;;;;5112824;28;20484;-70
2021/03/07 08:46:00;;;;;;;7.73;6.43;;;3.40;99.90;;;;;;5112197;28;20963;-70
2021/03/07 08:48:27;;;;;;;8.70;7.10;;;3.70;99.90;;;;;;5112513;28;20498;-70
2021/03/07 08:50:53;;;;;;;7.83;6.63;;;3.80;99.90;;;;;;5112267;28;20536;-71
2021/03/07 08:53:24;;;;;;;7.87;6.30;;;4.10;99.90;;;;;;5111312;28;20532;-69
2021/03/07 08:55:50;;;;;;;9.30;7.33;;;4.20;99.90;;;;;;5111456;28;20457;-70
2021/03/07 08:58:17;;;;;;;7.53;6.73;;;4.30;99.90;;;;;;5111714;28;20528;-71
2021/03/07 09:00:45;;;;;;;7.03;6.33;;;4.40;99.90;;;;;;5111705;27;20499;-70
2021/03/07 09:03:13;;;;;;;8.90;7.30;;;4.50;99.90;;;;;;5111426;28;20512;-71
2021/03/07 09:05:39;;;;;;;9.47;6.60;;;4.70;99.90;;;;;;5110750;28;20983;-70
2021/03/07 09:08:06;;;;;;;8.17;6.70;;;4.90;99.90;;;;;;5103306;28;20532;-70
2021/03/07 09:10:35;;;;;;;8.50;7.00;;;5.30;99.90;;;;;;5111565;28;20551;-71
2021/03/07 09:13:10;;;;;;;9.60;8.30;;;5.70;99.70;;;;;;5111656;28;20521;-70
2021/03/07 09:15:38;;;;;;;10.10;6.97;;;6.10;97.90;;;;;;5109852;28;20471;-71
2021/03/07 09:18:05;;;;;;;10.03;8.07;;;6.10;98.20;;;;;;5111355;28;20529;-71
2021/03/07 09:20:45;;;;;;;8.70;7.47;;;6.00;97.50;;;;;;5110867;28;20532;-71
2021/03/07 09:23:32;;;;;;;7.93;6.70;;;6.20;97.70;;;;;;5099491;28;20560;-71
2021/03/07 09:25:59;;;;;;;7.70;6.73;;;6.60;96.60;;;;;;5110895;28;20536;-70
2021/03/07 09:28:34;;;;;;;9.13;7.30;;;6.80;96.00;;;;;;5111014;28;20528;-70
2021/03/07 09:31:03;;;;;;;9.13;6.93;;;6.80;97.10;;;;;;5111120;28;20441;-70
2021/03/07 09:33:29;;;;;;;10.37;7.47;;;7.30;96.60;;;;;;5110445;28;20433;-70
2021/03/07 09:36:09;;;;;;;9.27;7.73;;;7.70;94.60;;;;;;5110751;28;20546;-70
2021/03/07 09:38:45;;;;;;;7.23;6.50;;;7.60;94.00;;;;;;5110970;28;20445;-69
2021/03/07 09:41:13;;;;;;;10.20;6.83;;;7.80;94.80;;;;;;5111104;28;20430;-70
2021/03/07 09:43:41;;;;;;;8.00;7.20;;;7.70;93.60;;;;;;5110261;28;20592;-70
2021/03/07 09:46:10;;;;;;;8.97;8.07;;;8.20;93.90;;;;;;5110812;28;21043;-69
2021/03/07 09:48:38;;;;;;;12.53;6.83;;;8.50;93.40;;;;;;5110826;28;20464;-70
2021/03/07 09:51:10;;;;;;;8.70;7.53;;;8.90;93.10;;;;;;5110767;28;20973;-71
2021/03/07 09:53:39;;;;;;;9.07;7.87;;;9.00;90.90;;;;;;5110643;28;20488;-69
2021/03/07 09:56:06;;;;;;;10.10;8.40;;;8.80;91.30;;;;;;5110710;28;20544;-70
2021/03/07 09:58:37;;;;;;;9.27;8.40;;;9.00;92.50;;;;;;5111041;28;20528;-71
2021/03/07 10:01:05;;;;;;;9.77;8.40;;;9.40;91.80;;;;;;5110919;28;20526;-75
2021/03/07 10:03:33;;;;;;;8.30;7.50;;;9.90;91.00;;;;;;5110143;28;20488;-71
2021/03/07 10:06:11;;;;;;;12.07;9.50;;;10.30;89.20;;;;;;5110369;28;20544;-73
2021/03/07 10:08:39;;;;;;;9.07;8.23;;;10.70;88.20;;;;;;5111072;28;20456;-73
2021/03/07 10:11:14;;;;;;;10.30;9.13;;;10.70;83.30;;;;;;5111030;28;20473;-69
2021/03/07 10:13:42;;;;;;;10.30;8.23;;;10.30;83.40;;;;;;5110079;28;20487;-72
2021/03/07 10:16:09;;;;;;;9.07;8.13;;;9.80;87.30;;;;;;5110660;28;21026;-70
2021/03/07 10:18:36;;;;;;;10.40;8.50;;;9.90;88.30;;;;;;5110686;28;20582;-73
2021/03/07 10:21:04;;;;;;;9.80;8.47;;;10.10;85.20;;;;;;5111080;28;20979;-71
2021/03/07 10:23:33;;;;;;;9.50;8.50;;;10.30;85.60;;;;;;5109703;28;20477;-70
2021/03/07 10:26:01;;;;;;;9.53;8.53;;;10.70;85.70;;;;;;5112454;28;20540;-70
2021/03/07 10:28:29;;;;;;;10.27;9.23;;;10.90;86.30;;;;;;5114431;28;20483;-69
2021/03/07 10:31:07;;;;;;;10.10;8.63;;;10.90;82.50;;;;;;5114878;28;20524;-70
2021/03/07 10:33:34;;;;;;;10.83;9.70;;;11.00;83.30;;;;;;5100415;28;21290;-73
2021/03/07 10:36:06;;;;;;;11.53;9.77;;;11.20;80.60;;;;;;5111051;28;20539;-76
2021/03/07 10:38:34;;;;;;;9.77;8.77;;;11.20;80.50;;;;;;5114570;28;20498;-74
2021/03/07 10:41:17;;;;;;;10.30;9.30;;;11.30;80.80;;;;;;5114361;28;20441;-74
2021/03/07 10:43:47;;;;;;;12.00;10.80;;;11.50;80.90;;;;;;5113888;28;20484;-73
2021/03/07 10:46:26;;;;;;;13.07;10.10;;;11.20;80.80;;;;;;5104392;28;20943;-68
2021/03/07 10:48:53;;;;;;;12.40;10.80;;;10.80;81.50;;;;;;5112851;28;20456;-69
2021/03/07 10:51:20;;;;;;;12.43;10.37;;;10.30;82.20;;;;;;5107730;27;20451;-69
2021/03/07 10:53:48;;;;;;;11.83;10.27;;;10.20;83.50;;;;;;5112180;28;20453;-69
2021/03/07 10:56:14;;;;;;;12.13;9.80;;;10.30;84.10;;;;;;5112774;28;20578;-71
2021/03/07 10:58:41;;;;;;;11.77;10.53;;;10.40;82.90;;;;;;5113129;28;20533;-68
2021/03/07 11:01:07;;;;;;;10.80;9.70;;;10.50;82.10;;;;;;5113284;28;21064;-70
2021/03/07 11:03:33;;;;;;;11.03;9.93;;;10.50;82.00;;;;;;5112347;28;20473;-70
2021/03/07 11:06:00;;;;;;;12.97;10.80;;;10.40;84.50;;;;;;5112961;28;20975;-70
2021/03/07 11:08:26;;;;;;;10.80;9.23;;;10.80;84.60;;;;;;5112835;28;20468;-68
2021/03/07 11:10:53;;;;;;;11.50;10.10;;;11.00;82.00;;;;;;5113267;28;20473;-68
2021/03/07 11:13:20;;;;;;;12.07;10.43;;;11.40;81.60;;;;;;5112641;28;20476;-67
2021/03/07 11:15:46;;;;;;;12.20;10.67;;;11.80;80.10;;;;;;5113206;27;20540;-67
2021/03/07 11:18:13;;;;;;;12.30;11.00;;;12.30;80.30;;;;;;5113105;28;20449;-69
2021/03/07 11:20:39;;;;;;;12.33;11.03;;;12.20;77.60;;;;;;5112920;28;20449;-69
2021/03/07 11:23:05;;;;;;;12.07;10.77;;;11.80;77.40;;;;;;5112885;28;20493;-69
2021/03/07 11:25:32;;;;;;;12.33;11.03;;;11.00;79.50;;;;;;5111741;28;20542;-70
2021/03/07 11:27:59;;;;;;;12.80;11.37;;;10.60;81.50;;;;;;5112779;28;20478;-69
2021/03/07 11:30:26;;;;;;;12.97;11.20;;;10.10;83.00;;;;;;5110815;28;20503;-70
2021/03/07 11:32:52;;;;;;;13.50;12.00;;;9.70;85.50;;;;;;5112567;28;20995;-70
2021/03/07 11:35:18;;;;;;;11.03;9.80;;;9.80;86.00;;;;;;5111609;28;20476;-69
2021/03/07 11:37:45;;;;;;;11.07;9.90;;;9.50;85.20;;;;;;5110283;28;20532;-69
2021/03/07 11:40:12;;;;;;;11.77;10.47;;;9.20;86.00;;;;;;5111092;28;20445;-70
2021/03/07 11:42:38;;;;;;;11.80;9.73;;;9.30;86.10;;;;;;5112455;28;20923;-70
2021/03/07 11:45:07;;;;;;;10.87;9.77;;;9.60;86.90;;;;;;5111733;28;20489;-70
2021/03/07 11:47:33;;;;;;;11.80;10.07;;;9.70;86.40;;;;;;5098363;28;20457;-67
2021/03/07 11:50:00;;;;;;;9.93;8.70;;;10.10;84.10;;;;;;5107669;28;20451;-69
2021/03/07 11:52:26;;;;;;;11.60;10.23;;;10.20;81.80;;;;;;5108476;28;20924;-68
2021/03/07 11:54:52;;;;;;;10.23;9.20;;;10.20;81.40;;;;;;5111053;28;20489;-69
2021/03/07 11:57:19;;;;;;;10.87;9.30;;;10.40;85.10;;;;;;5098027;28;20495;-68
2021/03/07 11:59:45;;;;;;;13.13;10.37;;;10.60;80.40;;;;;;5106736;28;20469;-69
2021/03/07 12:02:12;;;;;;;10.47;9.07;;;10.90;80.80;;;;;;5107261;28;20473;-69
2021/03/07 12:04:39;;;;;;;11.83;10.63;;;10.80;78.90;;;;;;5094735;28;20513;-70
2021/03/07 12:07:05;;;;;;;10.83;9.07;;;10.80;79.90;;;;;;5106252;28;20536;-71
2021/03/07 12:09:32;;;;;;;8.53;7.73;;;10.50;80.80;;;;;;5111233;28;20865;-70
2021/03/07 12:11:59;;;;;;;10.47;9.37;;;10.50;79.80;;;;;;5111958;28;20520;-69
2021/03/07 12:14:25;;;;;;;12.87;9.90;;;10.40;78.40;;;;;;5110977;28;21039;-67
2021/03/07 12:16:53;;;;;;;12.07;9.73;;;10.30;80.90;;;;;;5111500;28;20452;-68
2021/03/07 12:19:21;;;;;;;13.57;9.30;;;10.20;79.20;;;;;;5105180;28;21064;-67
2021/03/07 12:21:48;;;;;;;10.83;9.20;;;10.50;79.40;;;;;;5094853;28;20454;-70
2021/03/07 12:24:14;;;;;;;11.07;9.60;;;10.40;78.50;;;;;;5098425;28;20509;-70
2021/03/07 12:26:41;;;;;;;10.87;9.67;;;10.40;79.60;;;;;;5098083;28;20581;-69
2021/03/07 12:29:07;;;;;;;10.57;8.90;;;10.40;79.40;;;;;;5098809;28;20470;-70
2021/03/07 12:31:34;;;;;;;11.60;9.80;;;9.90;79.70;;;;;;5100930;28;20533;-70
2021/03/07 12:34:00;;;;;;;11.17;9.90;;;9.80;82.00;;;;;;5099344;28;20537;-70
2021/03/07 12:36:28;;;;;;;13.80;9.90;;;9.90;81.40;;;;;;5095283;28;20493;-69
2021/03/07 12:38:54;;;;;;;11.93;10.70;;;10.30;84.40;;;;;;5097031;28;20438;-71
2021/03/07 12:41:21;;;;;;;11.37;10.20;;;10.70;80.10;;;;;;5096182;28;20545;-70
2021/03/07 12:43:48;;;;;;;10.17;9.00;;;10.80;79.30;;;;;;5095347;28;20476;-68